Time;durP1;ratioP1;P1;durP2;ratioP2;P2;SDS_P1;SDS_P2;PMS_P1;PMS_P2;Temp;Humidity;BMP_temperature;BMP_pressure;BME280_temperature;BME280_humidity;BME280_pressure;Samples;Min_cycle;Max_cycle;Signal;HPM_P1;HPM_P2
2022/04/01 00:00:22;;;;;;;23.50;6.47;;;;;;;16.82;59.53;98090.19;5024216;28;1298176;-61
2022/04/01 00:02:49;;;;;;;30.33;8.00;;;;;;;16.79;60.02;98119.66;5070257;28;20278;-61
2022/04/01 00:05:16;;;;;;;20.90;6.13;;;;;;;16.81;59.89;98117.84;5060579;28;20206;-61
2022/04/01 00:08:04;;;;;;;23.80;7.17;;;;;;;16.69;60.80;98105.28;5049806;28;20659;-61
2022/04/01 00:10:31;;;;;;;27.23;7.13;;;;;;;16.56;62.01;98078.03;5049921;28;20197;-61
2022/04/01 00:12:58;;;;;;;26.77;8.63;;;;;;;16.37;63.46;98061.31;5050088;28;20188;-59
2022/04/01 00:15:26;;;;;;;30.93;8.30;;;;;;;16.11;63.96;98020.59;5050066;28;20196;-59
2022/04/01 00:17:54;;;;;;;20.03;6.90;;;;;;;16.13;64.71;98060.25;5049737;28;20189;-59
2022/04/01 00:20:21;;;;;;;27.70;7.17;;;;;;;16.06;64.92;98006.94;5049847;28;20195;-59
2022/04/01 00:22:48;;;;;;;20.93;6.87;;;;;;;15.76;66.16;97993.13;5049934;28;20287;-59
2022/04/01 00:25:16;;;;;;;30.10;7.70;;;;;;;15.76;66.77;98013.84;5049930;28;20195;-59
2022/04/01 00:27:43;;;;;;;20.13;7.97;;;;;;;15.60;67.41;97996.19;5049907;28;20190;-59
2022/04/01 00:30:11;;;;;;;22.30;7.60;;;;;;;15.47;68.11;97994.81;5067744;28;20219;-59
2022/04/01 00:32:39;;;;;;;23.23;8.13;;;;;;;15.33;69.21;97971.88;5068999;28;20446;-59
2022/04/01 00:35:07;;;;;;;18.93;8.67;;;;;;;15.28;69.40;97934.91;5069706;28;20440;-59
2022/04/01 00:37:34;;;;;;;26.20;7.40;;;;;;;15.22;69.92;97932.50;5069543;28;20200;-59
2022/04/01 00:40:01;;;;;;;25.77;7.13;;;;;;;15.20;69.88;97960.16;5069994;28;20551;-60
2022/04/01 00:42:30;;;;;;;30.53;7.87;;;;;;;15.27;69.79;97956.53;5069556;28;20200;-60
2022/04/01 00:44:57;;;;;;;18.70;7.33;;;;;;;15.25;69.55;97964.31;5069597;28;20199;-60
2022/04/01 00:47:24;;;;;;;19.33;7.53;;;;;;;15.28;69.41;97990.09;5069498;28;20207;-60
2022/04/01 00:49:54;;;;;;;30.77;8.90;;;;;;;15.23;69.17;97954.91;5069482;28;20653;-60
2022/04/01 00:52:22;;;;;;;29.37;7.83;;;;;;;15.24;68.80;97966.97;5069557;28;20227;-57
2022/04/01 00:54:50;;;;;;;18.40;6.73;;;;;;;15.25;68.89;97959.13;5069446;28;20200;-59
2022/04/01 00:57:18;;;;;;;21.53;7.53;;;;;;;15.29;68.70;97957.31;5069643;28;20281;-59
2022/04/01 00:59:46;;;;;;;21.17;6.00;;;;;;;15.38;67.90;97889.81;5070165;28;20230;-59
2022/04/01 01:02:14;;;;;;;22.67;7.77;;;;;;;15.23;68.71;97895.41;5073053;28;20195;-59
2022/04/01 01:04:41;;;;;;;21.60;7.67;;;;;;;15.27;68.40;97915.94;5072981;28;20231;-58
2022/04/01 01:07:09;;;;;;;21.23;6.93;;;;;;;15.40;67.05;97881.97;5073288;28;20253;-58
2022/04/01 01:09:36;;;;;;;17.03;6.30;;;;;;;15.47;66.73;97835.19;5073169;28;20224;-59
2022/04/01 01:12:06;;;;;;;23.60;6.10;;;;;;;15.59;65.65;97865.91;5073116;28;20195;-60
2022/04/01 01:14:35;;;;;;;14.00;5.77;;;;;;;15.71;64.64;97906.94;5072968;28;20191;-59
2022/04/01 01:17:04;;;;;;;16.60;5.90;;;;;;;15.76;64.58;97845.53;5072891;28;20559;-59
2022/04/01 01:19:31;;;;;;;21.30;7.30;;;;;;;15.72;65.26;97882.75;5072687;28;21171;-59
2022/04/01 01:21:59;;;;;;;20.87;5.67;;;;;;;15.74;65.31;97948.28;5073014;28;20320;-59
2022/04/01 01:24:29;;;;;;;19.17;6.83;;;;;;;15.72;65.38;97983.75;5072992;28;20203;-60
2022/04/01 01:26:57;;;;;;;23.73;6.37;;;;;;;15.73;65.68;97967.31;5072628;28;20191;-59
2022/04/01 01:29:26;;;;;;;23.40;7.17;;;;;;;15.73;65.53;97917.28;5072632;28;20219;-59
2022/04/01 01:31:54;;;;;;;16.50;7.20;;;;;;;15.57;66.63;97906.53;5072522;28;20193;-59
2022/04/01 01:34:21;;;;;;;18.70;6.67;;;;;;;15.54;66.45;97953.22;5072854;28;20191;-59
2022/04/01 01:36:48;;;;;;;18.13;6.93;;;;;;;15.61;66.24;97967.66;5072557;28;20203;-59
2022/04/01 01:39:15;;;;;;;24.47;7.57;;;;;;;15.61;65.67;97884.81;5072561;28;20196;-59
2022/04/01 01:41:44;;;;;;;17.50;6.20;;;;;;;15.66;64.85;97946.81;5072351;28;20214;-60
2022/04/01 01:44:11;;;;;;;23.07;6.67;;;;;;;15.66;64.98;97973.56;5072382;28;20662;-59
2022/04/01 01:46:38;;;;;;;21.47;7.00;;;;;;;15.71;64.96;97973.44;5072421;28;20562;-59
2022/04/01 01:49:05;;;;;;;15.27;6.03;;;;;;;15.67;64.43;97944.19;5072019;28;20312;-59
2022/04/01 01:57:04;;;;;;;17.93;6.43;;;;;;;15.62;64.28;97852.88;5072177;28;20194;-59
2022/04/01 01:59:30;;;;;;;19.47;6.50;;;;;;;15.66;64.24;97949.41;5072070;28;20211;-59
2022/04/01 02:01:58;;;;;;;20.47;6.50;;;;;;;15.68;64.03;97961.44;5071916;28;20202;-59
2022/04/01 02:04:25;;;;;;;22.00;6.13;;;;;;;15.73;63.78;97941.44;5071451;28;20192;-59
2022/04/01 02:06:52;;;;;;;18.93;7.37;;;;;;;15.54;63.75;97869.53;5072027;28;20240;-59
2022/04/01 02:09:19;;;;;;;22.20;7.87;;;;;;;15.63;63.55;97908.09;5070404;28;20502;-59
2022/04/01 02:11:46;;;;;;;19.80;8.00;;;;;;;15.74;62.82;97829.19;5070924;28;20432;-59
2022/04/01 02:14:15;;;;;;;32.33;7.87;;;;;;;15.84;61.66;97908.28;5071716;28;20197;-59
2022/04/01 02:16:44;;;;;;;27.77;7.37;;;;;;;15.92;60.54;97950.34;5071593;28;20195;-58
2022/04/01 02:19:11;;;;;;;33.90;7.50;;;;;;;16.09;60.15;97895.44;5071703;28;20188;-59
2022/04/01 02:21:39;;;;;;;26.27;6.80;;;;;;;16.09;60.29;97858.31;5071442;28;20290;-59
2022/04/01 02:24:10;;;;;;;18.20;6.27;;;;;;;15.98;60.59;97842.25;5071812;28;20227;-59
2022/04/01 02:26:37;;;;;;;23.97;6.73;;;;;;;16.06;60.92;97894.69;5071403;28;20254;-59
2022/04/01 02:29:05;;;;;;;25.93;7.20;;;;;;;15.90;61.50;97908.09;5071435;28;20215;-59
2022/04/01 02:31:33;;;;;;;26.97;7.23;;;;;;;15.97;61.38;97915.69;5071402;28;20360;-59
2022/04/01 02:34:00;;;;;;;36.60;7.27;;;;;;;16.05;60.51;97911.97;5071172;28;20222;-59
2022/04/01 02:36:27;;;;;;;35.80;7.47;;;;;;;16.29;58.93;97887.00;5071377;28;20685;-59
2022/04/01 02:38:54;;;;;;;25.60;7.80;;;;;;;16.27;58.96;97894.00;5071185;28;20187;-59
2022/04/01 02:41:22;;;;;;;31.80;7.73;;;;;;;16.31;58.73;97865.34;5071009;28;20191;-59
2022/04/01 02:43:50;;;;;;;27.53;7.27;;;;;;;16.28;59.15;97908.66;5071093;28;20196;-59
2022/04/01 02:46:17;;;;;;;27.60;7.23;;;;;;;16.26;59.32;97932.00;5071261;28;20211;-59
2022/04/01 02:48:45;;;;;;;34.93;6.97;;;;;;;16.27;59.39;97909.53;5070875;28;20198;-59
2022/04/01 02:51:12;;;;;;;31.50;7.43;;;;;;;16.30;59.21;97907.72;5071321;28;20197;-59
2022/04/01 02:53:39;;;;;;;23.13;7.60;;;;;;;16.26;59.60;97923.41;5070974;28;20573;-59
2022/04/01 02:56:07;;;;;;;26.90;7.90;;;;;;;16.32;59.50;97930.97;5070636;28;20487;-59
2022/04/01 02:58:34;;;;;;;28.77;7.50;;;;;;;16.31;59.58;97947.44;5070889;28;20191;-59
2022/04/01 03:01:01;;;;;;;30.77;8.13;;;;;;;16.17;60.31;97927.13;5071053;28;20242;-59
2022/04/01 03:03:28;;;;;;;26.30;7.87;;;;;;;15.95;61.32;97915.75;5070962;28;20191;-59
2022/04/01 03:05:56;;;;;;;23.50;7.60;;;;;;;15.89;61.51;97934.03;5070965;28;20195;-60
2022/04/01 03:08:23;;;;;;;21.33;7.60;;;;;;;15.87;62.31;97966.94;5070821;28;20191;-59
2022/04/01 03:10:50;;;;;;;23.77;7.23;;;;;;;15.81;62.62;97969.69;5071126;28;20215;-59
2022/04/01 03:13:17;;;;;;;22.83;6.40;;;;;;;15.75;62.94;97977.63;5071036;28;20195;-59
2022/04/01 03:15:44;;;;;;;22.73;7.67;;;;;;;15.66;63.71;97972.69;5070900;28;20306;-60
2022/04/01 03:18:11;;;;;;;18.90;7.47;;;;;;;15.43;64.50;97981.09;5070758;28;20199;-60
2022/04/01 03:20:38;;;;;;;20.50;7.10;;;;;;;15.38;65.15;97990.72;5070710;28;20199;-60
2022/04/01 03:23:07;;;;;;;16.10;7.33;;;;;;;15.28;65.90;97984.94;5070408;28;20193;-60
2022/04/01 03:25:34;;;;;;;21.83;7.50;;;;;;;15.20;66.29;97988.59;5070598;28;20254;-60
2022/04/01 03:28:02;;;;;;;31.00;7.43;;;;;;;15.06;67.28;97988.13;5070536;28;20192;-60
2022/04/01 03:30:30;;;;;;;18.97;8.07;;;;;;;15.01;67.39;97975.31;5070423;28;20320;-60
2022/04/01 03:32:57;;;;;;;22.37;7.97;;;;;;;14.96;67.96;97972.00;5070650;28;20191;-60
2022/04/01 03:35:26;;;;;;;24.23;8.03;;;;;;;14.83;68.55;97956.84;5070386;28;20286;-60
2022/04/01 03:37:53;;;;;;;23.83;7.67;;;;;;;14.76;68.85;97961.31;5070471;28;20230;-60
2022/04/01 03:40:23;;;;;;;30.50;7.17;;;;;;;14.71;69.15;97960.56;5070201;28;20191;-59
2022/04/01 03:42:51;;;;;;;21.67;7.53;;;;;;;14.55;69.97;97962.69;5069354;28;20202;-59
2022/04/01 03:45:19;;;;;;;24.90;8.40;;;;;;;14.57;69.98;97968.66;5070296;28;20198;-59
2022/04/01 03:47:52;;;;;;;27.63;8.07;;;;;;;14.58;69.86;97960.03;5050144;28;20199;-59
2022/04/01 03:50:29;;;;;;;27.53;8.10;;;;;;;14.50;70.17;97948.19;5050218;28;20692;-59
2022/04/01 03:53:01;;;;;;;27.50;9.27;;;;;;;14.49;70.02;97957.66;5064536;28;20577;-60
2022/04/01 03:55:32;;;;;;;21.63;10.07;;;;;;;14.50;70.06;97938.66;5069349;28;20197;-59
2022/04/01 03:58:03;;;;;;;29.70;11.83;;;;;;;14.39;70.34;97938.13;5070549;28;20346;-59
2022/04/01 04:00:31;;;;;;;29.57;11.43;;;;;;;14.40;70.58;97942.38;5070187;28;20225;-59
2022/04/01 04:02:59;;;;;;;33.30;10.43;;;;;;;14.39;70.00;97927.78;5070441;28;20201;-60
2022/04/01 04:05:27;;;;;;;33.90;13.03;;;;;;;14.37;70.23;97933.84;5070273;28;20193;-60
2022/04/01 04:07:56;;;;;;;32.43;11.90;;;;;;;14.31;70.23;97950.28;5069966;28;20625;-60
2022/04/01 04:10:27;;;;;;;33.63;13.63;;;;;;;14.35;70.03;97949.38;5070207;28;20510;-60
2022/04/01 04:12:57;;;;;;;38.13;14.20;;;;;;;14.38;69.83;97949.31;5076270;28;20201;-61
2022/04/01 04:15:27;;;;;;;38.77;13.20;;;;;;;14.32;69.79;97928.78;5080441;28;20213;-60
2022/04/01 04:17:59;;;;;;;27.33;10.07;;;;;;;14.17;70.41;97924.78;5076544;28;20198;-60
2022/04/01 04:20:34;;;;;;;33.20;11.18;;;;;;;14.10;71.07;97927.56;5068629;28;20426;-60
2022/04/01 04:23:09;;;;;;;37.43;10.23;;;;;;;14.20;70.15;97935.06;5069817;28;20723;-61
2022/04/01 04:25:37;;;;;;;31.30;10.33;;;;;;;14.24;70.16;97928.09;5069991;28;20195;-61
2022/04/01 04:28:10;;;;;;;28.97;9.13;;;;;;;14.19;69.61;97929.94;5069888;28;20276;-60
2022/04/01 04:30:42;;;;;;;29.27;10.57;;;;;;;14.20;69.76;97945.38;5070113;28;20233;-60
2022/04/01 04:33:10;;;;;;;31.27;10.38;;;;;;;14.19;69.95;97915.28;5069499;28;20448;-60
2022/04/01 04:35:39;;;;;;;28.13;10.10;;;;;;;14.10;70.50;97935.31;5071703;28;20201;-59
2022/04/01 04:38:07;;;;;;;27.07;8.97;;;;;;;14.16;70.46;97945.50;5073580;28;20206;-59
2022/04/01 04:40:35;;;;;;;42.77;11.23;;;;;;;14.08;70.37;97925.03;5073663;28;20589;-59
2022/04/01 04:43:02;;;;;;;48.33;10.40;;;;;;;14.08;70.34;97957.75;5078150;28;20197;-59
2022/04/01 04:45:31;;;;;;;38.87;10.77;;;;;;;14.14;70.20;97953.28;5079699;28;20250;-60
2022/04/01 04:47:59;;;;;;;36.63;10.03;;;;;;;14.18;69.94;97934.25;5073769;28;20203;-59
2022/04/01 04:50:26;;;;;;;46.50;12.00;;;;;;;14.23;69.76;97922.97;5082710;28;20234;-59
2022/04/01 04:52:55;;;;;;;39.67;12.20;;;;;;;14.22;69.25;97921.25;5074321;28;20205;-59
2022/04/01 04:55:22;;;;;;;43.13;11.33;;;;;;;14.22;69.45;97929.00;5073346;28;20284;-61
2022/04/01 04:57:52;;;;;;;35.60;9.97;;;;;;;14.33;69.11;97937.41;5061713;28;20203;-60
2022/04/01 05:00:21;;;;;;;35.50;10.03;;;;;;;14.43;68.53;97928.53;5052932;28;20221;-60
2022/04/01 05:03:15;;;;;;;32.73;11.40;;;;;;;14.58;68.06;97929.03;5053084;28;20725;-60
2022/04/01 05:05:44;;;;;;;45.33;13.30;;;;;;;14.76;66.95;97941.47;5051539;28;20526;-61
2022/04/01 05:08:28;;;;;;;45.13;13.57;;;;;;;14.91;65.91;97935.06;5052798;28;20192;-59
2022/04/01 05:11:14;;;;;;;35.53;11.33;;;;;;;14.94;65.20;97927.25;5053031;28;20321;-59
2022/04/01 05:13:51;;;;;;;44.07;12.23;;;;;;;14.98;64.99;97938.31;5052901;28;20203;-59
2022/04/01 05:16:31;;;;;;;30.27;11.73;;;;;;;15.11;65.15;97944.88;5052559;28;20279;-59
2022/04/01 05:19:05;;;;;;;35.40;11.63;;;;;;;15.33;64.25;97939.06;5052610;28;20923;-62
2022/04/01 05:21:42;;;;;;;39.57;11.77;;;;;;;15.50;63.79;97937.78;5053143;28;20659;-59
2022/04/01 05:24:14;;;;;;;45.77;12.50;;;;;;;15.63;63.40;97921.03;5052396;28;20609;-60
2022/04/01 05:26:45;;;;;;;38.67;11.97;;;;;;;15.66;62.59;97921.78;5052976;28;20192;-60
2022/04/01 05:29:18;;;;;;;37.20;10.97;;;;;;;15.68;62.59;97925.19;5072506;28;20249;-60
2022/04/01 05:31:52;;;;;;;39.33;11.73;;;;;;;15.58;63.07;97921.16;5071961;28;20211;-60
2022/04/01 05:34:33;;;;;;;35.37;12.17;;;;;;;15.56;62.98;97924.69;5072753;28;20196;-59
2022/04/01 05:37:02;;;;;;;37.47;12.40;;;;;;;15.68;62.54;97932.97;5071895;28;20205;-60
2022/04/01 05:39:29;;;;;;;39.67;12.60;;;;;;;15.67;62.60;97940.75;5072169;28;20198;-59
2022/04/01 05:41:57;;;;;;;37.67;11.17;;;;;;;15.70;62.23;97913.03;5072651;28;20578;-59
2022/04/01 05:44:26;;;;;;;39.27;11.37;;;;;;;15.72;62.04;97929.38;5072277;28;20194;-60
2022/04/01 05:46:54;;;;;;;46.60;14.17;;;;;;;15.63;62.61;97900.31;5071571;28;20202;-59
2022/04/01 05:49:23;;;;;;;40.70;13.67;;;;;;;15.63;62.88;97934.81;5072248;28;20216;-59
2022/04/01 05:51:50;;;;;;;37.17;12.63;;;;;;;15.79;62.98;97935.22;5071860;28;20222;-59
2022/04/01 05:54:19;;;;;;;49.87;13.57;;;;;;;15.89;62.37;97895.19;5072010;28;20195;-60
2022/04/01 05:56:47;;;;;;;41.37;12.50;;;;;;;15.73;62.79;97907.78;5070837;28;20202;-60
2022/04/01 05:59:16;;;;;;;32.37;11.33;;;;;;;15.68;63.07;97901.03;5071390;28;20196;-59
2022/04/01 06:01:49;;;;;;;39.00;10.63;;;;;;;15.70;63.07;97894.91;5069551;28;20184;-60
2022/04/01 06:04:47;;;;;;;42.80;14.18;;;;;;;15.85;63.16;97904.78;5050537;28;20534;-59
2022/04/01 06:07:27;;;;;;;46.93;12.40;;;;;;;16.04;62.72;97910.25;5067426;28;20196;-60
2022/04/01 06:10:01;;;;;;;44.03;11.47;;;;;;;16.31;61.79;97899.06;5071439;28;20667;-59
2022/04/01 06:12:39;;;;;;;45.67;12.43;;;;;;;16.37;61.50;97903.19;5071646;28;21069;-61
2022/04/01 06:15:19;;;;;;;39.07;11.20;;;;;;;16.34;61.72;97917.06;5071572;28;20297;-61
2022/04/01 06:18:01;;;;;;;51.43;11.93;;;;;;;16.22;61.76;97885.53;5070665;28;20253;-59
2022/04/01 06:20:33;;;;;;;45.13;12.23;;;;;;;16.42;62.04;97919.44;5070718;28;20192;-60
2022/04/01 06:23:07;;;;;;;37.57;11.53;;;;;;;16.44;62.15;97899.47;5071306;28;20731;-60
2022/04/01 06:25:41;;;;;;;40.53;10.97;;;;;;;16.59;62.29;97911.13;5055151;28;20670;-60
2022/04/01 06:28:19;;;;;;;50.83;12.90;;;;;;;16.65;62.06;97898.81;5051262;28;20194;-60
2022/04/01 06:30:48;;;;;;;56.60;13.00;;;;;;;16.78;61.43;97887.13;5051281;28;20555;-60
2022/04/01 06:33:27;;;;;;;45.80;12.10;;;;;;;16.79;61.05;97881.03;5050987;28;20196;-61
2022/04/01 06:36:00;;;;;;;40.33;11.30;;;;;;;17.00;60.07;97880.28;5051337;28;20196;-60
2022/04/01 06:38:37;;;;;;;36.10;11.80;;;;;;;17.28;58.97;97876.72;5051259;28;20196;-63
2022/04/01 06:41:07;;;;;;;43.47;13.03;;;;;;;17.46;58.50;97896.81;5051062;28;20605;-62
2022/04/01 06:43:35;;;;;;;42.00;11.93;;;;;;;17.72;56.88;97891.50;5056735;28;20562;-62
2022/04/01 06:46:03;;;;;;;41.10;11.13;;;;;;;17.82;55.75;97866.03;5070753;28;20199;-61
2022/04/01 06:48:30;;;;;;;50.37;11.63;;;;;;;18.01;55.36;97895.59;5070585;28;20184;-62
2022/04/01 06:50:58;;;;;;;51.03;14.33;;;;;;;18.15;54.60;97886.34;5070854;28;20238;-63
2022/04/01 06:53:26;;;;;;;43.33;11.57;;;;;;;18.30;53.92;97879.69;5070798;28;20209;-62
2022/04/01 06:55:54;;;;;;;49.57;12.73;;;;;;;18.37;52.54;97880.28;5070624;28;20203;-61
2022/04/01 06:58:21;;;;;;;46.77;10.53;;;;;;;18.21;51.92;97869.66;5070148;28;20199;-62
2022/04/01 07:00:48;;;;;;;53.57;12.70;;;;;;;18.59;51.64;97888.94;5070174;28;20224;-62
2022/04/01 07:03:16;;;;;;;37.00;10.63;;;;;;;18.78;50.81;97890.72;5070320;28;20196;-63
2022/04/01 07:05:43;;;;;;;40.07;10.07;;;;;;;18.92;50.99;97890.13;5070366;28;20194;-63
2022/04/01 07:08:12;;;;;;;56.43;12.53;;;;;;;19.03;50.34;97884.44;5070458;28;20188;-62
2022/04/01 07:10:40;;;;;;;34.17;12.17;;;;;;;19.08;50.42;97890.28;5070474;28;20229;-63
2022/04/01 07:13:08;;;;;;;43.60;12.23;;;;;;;19.18;49.95;97878.56;5070306;28;20261;-62
2022/04/01 07:15:35;;;;;;;36.17;11.27;;;;;;;19.25;50.13;97877.41;5069979;28;20196;-63
2022/04/01 07:18:02;;;;;;;40.17;12.07;;;;;;;19.31;50.96;97871.91;5069886;28;20192;-63
2022/04/01 07:20:29;;;;;;;48.20;11.97;;;;;;;19.43;50.51;97879.19;5069815;28;20654;-61
2022/04/01 07:22:57;;;;;;;46.60;12.30;;;;;;;19.38;49.72;97871.59;5069885;28;20291;-62
2022/04/01 07:25:25;;;;;;;43.30;11.00;;;;;;;19.41;49.20;97860.19;5069862;28;20196;-63
2022/04/01 07:27:53;;;;;;;41.33;10.50;;;;;;;19.41;50.24;97854.97;5070122;28;20585;-62
2022/04/01 07:30:21;;;;;;;49.37;11.93;;;;;;;19.37;49.31;97861.19;5069858;28;20187;-63
2022/04/01 07:32:50;;;;;;;47.03;12.33;;;;;;;19.34;49.44;97856.13;5069345;28;20283;-63
2022/04/01 07:35:18;;;;;;;47.35;12.32;;;;;;;19.50;50.02;97864.16;5076918;28;20953;-63
2022/04/01 07:37:45;;;;;;;46.10;11.50;;;;;;;19.59;49.80;97858.50;5080741;28;20189;-63
2022/04/01 07:40:13;;;;;;;40.47;10.33;;;;;;;19.67;50.20;97859.84;5079530;28;20198;-63
2022/04/01 07:42:42;;;;;;;38.00;11.67;;;;;;;19.56;50.79;97862.09;5078492;28;20658;-62
2022/04/01 07:45:10;;;;;;;45.80;11.53;;;;;;;19.71;50.39;97850.13;5079800;28;20183;-63
2022/04/01 07:47:38;;;;;;;36.03;11.50;;;;;;;19.84;50.42;97879.91;5079955;28;20692;-62
2022/04/01 07:50:06;;;;;;;40.03;11.77;;;;;;;20.00;49.33;97866.06;5078223;28;20194;-62
2022/04/01 07:52:33;;;;;;;39.17;11.13;;;;;;;20.17;48.93;97861.81;5077281;28;20196;-61
2022/04/01 07:55:01;;;;;;;45.80;11.63;;;;;;;20.19;48.11;97860.81;5078775;28;20203;-61
2022/04/01 07:57:28;;;;;;;40.43;11.27;;;;;;;20.25;47.76;97863.16;5076013;28;20196;-61
2022/04/01 07:59:56;;;;;;;37.57;10.93;;;;;;;20.39;46.84;97876.38;5079623;28;20703;-61
2022/04/01 08:02:23;;;;;;;44.57;12.50;;;;;;;20.42;46.23;97865.81;5077375;28;20201;-61
2022/04/01 08:04:50;;;;;;;42.90;11.87;;;;;;;20.59;45.96;97864.97;5075903;28;20197;-61
2022/04/01 08:07:17;;;;;;;29.80;10.77;;;;;;;20.48;46.19;97855.06;5075498;28;20915;-61
2022/04/01 08:09:45;;;;;;;40.20;11.40;;;;;;;20.54;46.25;97857.38;5078556;28;20231;-60
2022/04/01 08:12:11;;;;;;;45.43;12.13;;;;;;;20.73;45.33;97856.44;5073659;28;20709;-60
2022/04/01 08:14:40;;;;;;;37.33;11.43;;;;;;;20.83;44.92;97855.91;5074934;28;20203;-61
2022/04/01 08:17:11;;;;;;;51.03;11.97;;;;;;;21.02;44.37;97863.63;5073649;28;20203;-61
2022/04/01 08:19:39;;;;;;;37.73;11.07;;;;;;;21.03;43.85;97854.88;5073435;28;20223;-62
2022/04/01 08:22:05;;;;;;;52.57;12.23;;;;;;;21.02;43.80;97866.22;5073274;28;20266;-61
2022/04/01 08:24:32;;;;;;;48.60;11.20;;;;;;;21.20;43.43;97857.50;5073842;28;20199;-61
2022/04/01 08:27:00;;;;;;;39.23;12.27;;;;;;;21.32;41.77;97862.06;5074119;28;20273;-60
2022/04/01 08:29:27;;;;;;;46.13;12.43;;;;;;;21.33;41.73;97845.47;5082986;28;20248;-60
2022/04/01 08:31:54;;;;;;;46.07;12.03;;;;;;;21.41;40.86;97856.34;5082259;28;20299;-61
2022/04/01 08:34:22;;;;;;;46.77;11.73;;;;;;;21.57;40.55;97851.13;5074003;28;20187;-60
2022/04/01 08:36:50;;;;;;;53.60;11.80;;;;;;;21.52;40.33;97855.78;5071951;28;20184;-61
2022/04/01 08:39:17;;;;;;;57.47;12.70;;;;;;;21.52;39.77;97851.38;5072924;28;20290;-60
2022/04/01 08:41:44;;;;;;;51.27;12.30;;;;;;;21.62;40.22;97842.13;5072817;28;20290;-60
2022/04/01 08:44:11;;;;;;;48.03;12.17;;;;;;;21.76;39.55;97836.13;5071394;28;20645;-60
2022/04/01 08:46:39;;;;;;;58.80;12.77;;;;;;;21.65;40.06;97834.09;5080598;28;20248;-61
2022/04/01 08:49:06;;;;;;;45.10;12.00;;;;;;;21.71;40.12;97825.09;5083029;28;20266;-60
2022/04/01 08:51:35;;;;;;;53.60;12.73;;;;;;;21.85;40.07;97827.78;5081918;28;20218;-61
2022/04/01 08:54:03;;;;;;;47.73;12.17;;;;;;;21.94;39.98;97826.47;5082419;28;20645;-62
2022/04/01 08:56:30;;;;;;;50.47;12.70;;;;;;;21.97;39.34;97815.84;5081468;28;20630;-60
2022/04/01 08:58:58;;;;;;;52.77;11.87;;;;;;;22.04;39.68;97809.31;5072330;28;20210;-60
2022/04/01 09:01:25;;;;;;;56.50;12.00;;;;;;;22.13;38.79;97809.66;5071496;28;20665;-61
2022/04/01 09:03:55;;;;;;;54.47;13.07;;;;;;;22.18;38.30;97804.16;5074920;28;20217;-59
2022/04/01 09:06:22;;;;;;;63.13;13.07;;;;;;;22.36;37.64;97803.06;5072595;28;20227;-59
2022/04/01 09:08:58;;;;;;;59.20;13.43;;;;;;;22.38;38.30;97784.69;5071077;28;20460;-61
2022/04/01 09:11:25;;;;;;;59.53;12.37;;;;;;;22.34;38.12;97795.31;5072125;28;20219;-60
2022/04/01 09:13:52;;;;;;;54.10;13.87;;;;;;;22.44;38.39;97789.56;5071836;28;20195;-61
2022/04/01 09:16:25;;;;;;;44.57;12.83;;;;;;;22.45;38.38;97784.22;5072354;28;20279;-61
2022/04/01 09:18:55;;;;;;;62.47;13.73;;;;;;;22.56;38.21;97789.66;5071912;28;20245;-61
2022/04/01 09:21:27;;;;;;;57.87;13.70;;;;;;;22.48;37.93;97785.81;5071422;28;20195;-61
2022/04/01 09:23:56;;;;;;;68.90;13.23;;;;;;;22.73;37.96;97770.38;5072210;28;20191;-60
2022/04/01 09:26:31;;;;;;;49.40;12.53;;;;;;;22.52;37.09;97767.25;5072074;28;20282;-60
2022/04/01 09:28:59;;;;;;;51.07;13.43;;;;;;;22.63;37.02;97770.09;5071821;28;20264;-60
2022/04/01 09:31:30;;;;;;;54.57;12.93;;;;;;;22.70;36.93;97763.56;5071624;28;20242;-61
2022/04/01 09:33:57;;;;;;;58.87;12.33;;;;;;;22.71;36.90;97762.63;5071771;28;20195;-60
2022/04/01 09:36:26;;;;;;;59.97;12.97;;;;;;;22.82;36.99;97756.75;5071787;28;20187;-61
2022/04/01 09:39:00;;;;;;;60.57;13.23;;;;;;;22.87;36.06;97757.28;5071932;28;20550;-61
2022/04/01 09:41:36;;;;;;;53.60;13.88;;;;;;;22.88;36.54;97770.28;5071208;28;20444;-61
2022/04/01 09:44:09;;;;;;;62.67;15.33;;;;;;;22.78;36.00;97763.06;5075826;28;20195;-60
2022/04/01 09:46:42;;;;;;;55.13;14.63;;;;;;;22.83;35.74;97745.31;5080298;28;20198;-60
2022/04/01 09:49:09;;;;;;;57.97;13.43;;;;;;;22.97;35.87;97749.69;5079600;28;20278;-62
2022/04/01 09:51:42;;;;;;;62.43;13.53;;;;;;;23.02;35.42;97755.53;5081831;28;20207;-62
2022/04/01 09:54:12;;;;;;;65.53;13.43;;;;;;;23.08;35.18;97757.75;5079112;28;20179;-63
2022/04/01 09:56:44;;;;;;;54.80;13.50;;;;;;;23.13;34.95;97742.59;5080481;28;20214;-63
2022/04/01 09:59:13;;;;;;;48.90;12.27;;;;;;;23.26;34.91;97717.31;5079630;28;20188;-63
2022/04/01 10:01:41;;;;;;;68.43;14.37;;;;;;;23.61;34.06;97739.53;5077098;28;20677;-63
2022/04/01 10:04:09;;;;;;;55.37;13.33;;;;;;;23.65;34.21;97722.63;5080693;28;20282;-62
2022/04/01 10:06:39;;;;;;;55.57;13.60;;;;;;;23.41;33.78;97725.06;5075405;28;20290;-62
2022/04/01 10:09:08;;;;;;;64.97;13.83;;;;;;;23.36;33.95;97721.88;5069592;28;20192;-63
2022/04/01 10:11:37;;;;;;;59.40;13.10;;;;;;;23.49;33.82;97725.41;5077711;28;20220;-63
2022/04/01 10:14:08;;;;;;;61.20;14.50;;;;;;;23.71;33.35;97717.00;5079067;28;20191;-63
2022/04/01 10:16:36;;;;;;;58.10;14.03;;;;;;;23.74;33.72;97703.69;5077395;28;21887;-62
2022/04/01 10:19:13;;;;;;;61.43;14.67;;;;;;;23.81;33.24;97707.63;5081639;28;20191;-61
2022/04/01 10:21:43;;;;;;;51.73;13.30;;;;;;;23.71;33.36;97692.56;5078412;28;20191;-61
2022/04/01 10:24:31;;;;;;;56.50;13.70;;;;;;;23.94;33.07;97715.50;5079759;28;20209;-61
2022/04/01 10:27:15;;;;;;;53.93;12.27;;;;;;;23.77;32.29;97708.75;5077055;28;20194;-60
2022/04/01 10:29:44;;;;;;;68.67;13.87;;;;;;;23.78;32.73;97689.44;5078492;28;20188;-61
2022/04/01 10:32:25;;;;;;;49.00;12.03;;;;;;;23.89;32.78;97694.00;5078399;28;20271;-61
2022/04/01 10:34:54;;;;;;;52.73;11.83;;;;;;;24.09;32.83;97693.53;5080619;28;20234;-61
2022/04/01 10:37:22;;;;;;;56.60;15.00;;;;;;;23.87;32.56;97656.53;5079512;28;20191;-61
2022/04/01 10:39:51;;;;;;;57.10;13.17;;;;;;;24.09;32.47;97669.91;5079328;28;20186;-61
2022/04/01 10:42:20;;;;;;;64.88;14.50;;;;;;;24.18;32.60;97664.03;5068618;28;20455;-61
2022/04/01 10:44:49;;;;;;;57.37;13.57;;;;;;;24.42;32.22;97664.19;5072362;28;20187;-61
2022/04/01 10:47:17;;;;;;;65.13;13.93;;;;;;;24.64;31.42;97661.72;5072421;28;20188;-62
2022/04/01 10:52:30;;;;;;;60.50;13.77;;;;;;;24.90;30.56;97671.28;5076303;28;20218;-61
2022/04/01 10:55:18;;;;;;;48.57;13.07;;;;;;;24.78;30.63;97672.09;5072947;28;20186;-60
2022/04/01 10:57:50;;;;;;;69.13;14.53;;;;;;;24.83;30.97;97669.22;5072933;28;20611;-60
2022/04/01 11:00:19;;;;;;;57.70;12.80;;;;;;;25.03;30.14;97664.22;5074934;28;20238;-62
2022/04/01 11:02:47;;;;;;;51.10;12.50;;;;;;;25.07;30.35;97664.84;5077865;28;20684;-63
2022/04/01 11:05:31;;;;;;;50.77;13.27;;;;;;;25.06;30.32;97665.78;5073924;28;20667;-63
2022/04/01 11:08:20;;;;;;;45.20;11.53;;;;;;;25.08;30.13;97659.47;5076859;28;20192;-61
2022/04/01 11:11:09;;;;;;;50.90;11.93;;;;;;;25.18;30.80;97649.97;5050518;28;20686;-60
2022/04/01 11:13:39;;;;;;;62.38;12.85;;;;;;;25.29;30.67;97643.09;5049820;28;20522;-61
2022/04/01 11:16:18;;;;;;;59.50;11.90;;;;;;;25.19;30.68;97656.91;5050084;28;20204;-61
2022/04/01 11:19:19;;;;;;;68.17;11.97;;;;;;;25.26;30.36;97646.78;5050241;28;20257;-62
2022/04/01 11:21:48;;;;;;;55.23;12.53;;;;;;;25.14;29.71;97642.41;5064306;28;20192;-61
2022/04/01 11:24:30;;;;;;;43.20;11.43;;;;;;;25.07;30.17;97642.03;5074266;28;20283;-61
2022/04/01 11:27:05;;;;;;;54.00;12.63;;;;;;;25.08;30.23;97622.66;5077222;28;20187;-60
2022/04/01 11:29:33;;;;;;;52.97;11.87;;;;;;;25.14;30.11;97626.63;5076001;28;20175;-61
2022/04/01 11:32:07;;;;;;;51.93;12.53;;;;;;;25.11;30.36;97622.44;5058720;28;20682;-61
2022/04/01 11:34:55;;;;;;;53.17;10.17;;;;;;;25.27;30.08;97627.47;5049711;28;20192;-61
2022/04/01 11:37:22;;;;;;;58.63;11.07;;;;;;;25.34;30.02;97615.53;5049981;28;20192;-61
2022/04/01 11:39:49;;;;;;;47.23;10.90;;;;;;;25.16;30.11;97625.56;5048906;28;20285;-61